sensor_id;sensor_type;location;lat;lon;timestamp;temperature;humidity
6307;DHT22;3186;54.062;9.962;2022-12-18T00:01:36;-4.30;99.90
6307;DHT22;3186;54.062;9.962;2022-12-18T00:04:04;-4.30;99.90
6307;DHT22;3186;54.062;9.962;2022-12-18T00:06:31;-4.30;99.90
6307;DHT22;3186;54.062;9.962;2022-12-18T00:08:59;-4.40;99.90
6307;DHT22;3186;54.062;9.962;2022-12-18T00:11:28;-4.40;99.90
6307;DHT22;3186;54.062;9.962;2022-12-18T00:13:56;-4.40;99.90
6307;DHT22;3186;54.062;9.962;2022-12-18T00:16:23;-4.40;99.90
6307;DHT22;3186;54.062;9.962;2022-12-18T00:18:50;-4.40;99.90
6307;DHT22;3186;54.062;9.962;2022-12-18T00:21:19;-4.40;99.90
6307;DHT22;3186;54.062;9.962;2022-12-18T00:23:46;-4.30;99.90
6307;DHT22;3186;54.062;9.962;2022-12-18T00:26:18;-4.30;99.90
6307;DHT22;3186;54.062;9.962;2022-12-18T00:28:45;-4.30;99.90
6307;DHT22;3186;54.062;9.962;2022-12-18T00:31:14;-4.30;99.90
6307;DHT22;3186;54.062;9.962;2022-12-18T00:33:43;-4.40;99.90
6307;DHT22;3186;54.062;9.962;2022-12-18T00:36:12;-4.40;99.90
6307;DHT22;3186;54.062;9.962;2022-12-18T00:38:39;-4.40;99.90
6307;DHT22;3186;54.062;9.962;2022-12-18T00:41:06;-4.40;99.90
6307;DHT22;3186;54.062;9.962;2022-12-18T00:43:35;-4.40;99.90
6307;DHT22;3186;54.062;9.962;2022-12-18T00:46:01;-4.50;99.90
6307;DHT22;3186;54.062;9.962;2022-12-18T00:48:27;-4.60;99.90
6307;DHT22;3186;54.062;9.962;2022-12-18T00:50:53;-4.60;99.90
6307;DHT22;3186;54.062;9.962;2022-12-18T00:53:19;-4.50;99.90
6307;DHT22;3186;54.062;9.962;2022-12-18T00:55:45;-4.50;99.90
6307;DHT22;3186;54.062;9.962;2022-12-18T00:58:13;-4.50;99.90
6307;DHT22;3186;54.062;9.962;2022-12-18T01:00:40;-4.50;99.90
6307;DHT22;3186;54.062;9.962;2022-12-18T01:03:13;-4.50;99.90
6307;DHT22;3186;54.062;9.962;2022-12-18T01:05:41;-4.50;99.90
6307;DHT22;3186;54.062;9.962;2022-12-18T01:08:07;-4.50;99.90
6307;DHT22;3186;54.062;9.962;2022-12-18T01:10:33;-4.40;99.90
6307;DHT22;3186;54.062;9.962;2022-12-18T01:12:59;-4.40;99.90
6307;DHT22;3186;54.062;9.962;2022-12-18T01:15:25;-4.50;99.90
6307;DHT22;3186;54.062;9.962;2022-12-18T01:17:52;-4.50;99.90
6307;DHT22;3186;54.062;9.962;2022-12-18T01:20:18;-4.50;99.90
6307;DHT22;3186;54.062;9.962;2022-12-18T01:22:44;-4.50;99.90
6307;DHT22;3186;54.062;9.962;2022-12-18T01:25:10;-4.50;99.90
6307;DHT22;3186;54.062;9.962;2022-12-18T01:27:35;-4.40;99.90
6307;DHT22;3186;54.062;9.962;2022-12-18T01:30:03;-4.40;99.90
6307;DHT22;3186;54.062;9.962;2022-12-18T01:32:30;-4.40;99.90
6307;DHT22;3186;54.062;9.962;2022-12-18T01:34:56;-4.40;99.90
6307;DHT22;3186;54.062;9.962;2022-12-18T01:37:22;-4.40;99.90
6307;DHT22;3186;54.062;9.962;2022-12-18T01:39:48;-4.50;99.90
6307;DHT22;3186;54.062;9.962;2022-12-18T01:42:16;-4.50;99.90
6307;DHT22;3186;54.062;9.962;2022-12-18T01:47:49;-4.50;99.90
6307;DHT22;3186;54.062;9.962;2022-12-18T01:50:23;-4.60;99.90
6307;DHT22;3186;54.062;9.962;2022-12-18T01:52:53;-4.60;99.90
6307;DHT22;3186;54.062;9.962;2022-12-18T01:55:22;-4.50;99.90
6307;DHT22;3186;54.062;9.962;2022-12-18T01:57:51;-4.50;99.90
6307;DHT22;3186;54.062;9.962;2022-12-18T02:00:19;-4.60;99.90
6307;DHT22;3186;54.062;9.962;2022-12-18T02:02:46;-4.50;99.90
6307;DHT22;3186;54.062;9.962;2022-12-18T02:05:16;-4.50;99.90
6307;DHT22;3186;54.062;9.962;2022-12-18T02:10:48;-4.50;99.90
6307;DHT22;3186;54.062;9.962;2022-12-18T02:13:53;-4.50;99.90
6307;DHT22;3186;54.062;9.962;2022-12-18T02:27:34;-4.50;99.90
6307;DHT22;3186;54.062;9.962;2022-12-18T02:30:03;-4.50;99.90
6307;DHT22;3186;54.062;9.962;2022-12-18T02:32:42;-4.50;99.90
6307;DHT22;3186;54.062;9.962;2022-12-18T02:35:13;-4.50;99.90
6307;DHT22;3186;54.062;9.962;2022-12-18T02:37:42;-4.60;99.90
6307;DHT22;3186;54.062;9.962;2022-12-18T02:40:11;-4.50;99.90
6307;DHT22;3186;54.062;9.962;2022-12-18T02:42:37;-4.60;99.90
6307;DHT22;3186;54.062;9.962;2022-12-18T02:45:06;-4.50;99.90
6307;DHT22;3186;54.062;9.962;2022-12-18T02:47:38;-4.60;99.90
6307;DHT22;3186;54.062;9.962;2022-12-18T02:51:17;-4.60;99.90
6307;DHT22;3186;54.062;9.962;2022-12-18T02:53:27;-4.60;99.90
6307;DHT22;3186;54.062;9.962;2022-12-18T03:01:57;-4.60;99.90
6307;DHT22;3186;54.062;9.962;2022-12-18T03:04:40;-4.60;99.90
6307;DHT22;3186;54.062;9.962;2022-12-18T03:07:15;-4.60;99.90
6307;DHT22;3186;54.062;9.962;2022-12-18T03:09:47;-4.60;99.90
6307;DHT22;3186;54.062;9.962;2022-12-18T03:12:38;-4.60;99.90
6307;DHT22;3186;54.062;9.962;2022-12-18T03:15:20;-4.60;99.90
6307;DHT22;3186;54.062;9.962;2022-12-18T03:18:02;-4.60;99.90
6307;DHT22;3186;54.062;9.962;2022-12-18T03:20:31;-4.60;99.90
6307;DHT22;3186;54.062;9.962;2022-12-18T03:23:15;-4.60;99.90
6307;DHT22;3186;54.062;9.962;2022-12-18T03:25:47;-4.60;99.90
6307;DHT22;3186;54.062;9.962;2022-12-18T03:28:20;-4.60;99.90
6307;DHT22;3186;54.062;9.962;2022-12-18T03:30:57;-4.70;99.90
6307;DHT22;3186;54.062;9.962;2022-12-18T03:33:29;-4.70;99.90
6307;DHT22;3186;54.062;9.962;2022-12-18T03:35:57;-4.70;99.90
6307;DHT22;3186;54.062;9.962;2022-12-18T03:38:23;-4.80;99.90
6307;DHT22;3186;54.062;9.962;2022-12-18T03:44:00;-4.70;99.90
6307;DHT22;3186;54.062;9.962;2022-12-18T03:46:30;-4.70;99.90
6307;DHT22;3186;54.062;9.962;2022-12-18T03:49:10;-4.70;99.90
6307;DHT22;3186;54.062;9.962;2022-12-18T03:51:42;-4.70;99.90
6307;DHT22;3186;54.062;9.962;2022-12-18T03:54:11;-4.70;99.90
6307;DHT22;3186;54.062;9.962;2022-12-18T03:56:47;-4.70;99.90
6307;DHT22;3186;54.062;9.962;2022-12-18T03:59:15;-4.70;99.90
6307;DHT22;3186;54.062;9.962;2022-12-18T04:01:46;-4.80;99.90
6307;DHT22;3186;54.062;9.962;2022-12-18T04:04:14;-4.80;99.90
6307;DHT22;3186;54.062;9.962;2022-12-18T04:06:43;-4.90;99.90
6307;DHT22;3186;54.062;9.962;2022-12-18T04:09:12;-4.80;99.90
6307;DHT22;3186;54.062;9.962;2022-12-18T04:11:42;-4.80;99.90
6307;DHT22;3186;54.062;9.962;2022-12-18T04:14:13;-4.80;99.90
6307;DHT22;3186;54.062;9.962;2022-12-18T04:16:39;-4.70;99.90
6307;DHT22;3186;54.062;9.962;2022-12-18T04:19:09;-4.80;99.90
6307;DHT22;3186;54.062;9.962;2022-12-18T04:21:39;-4.80;99.90
6307;DHT22;3186;54.062;9.962;2022-12-18T04:24:06;-4.80;99.90
6307;DHT22;3186;54.062;9.962;2022-12-18T04:26:34;-4.80;99.90
6307;DHT22;3186;54.062;9.962;2022-12-18T04:29:11;-4.80;99.90
6307;DHT22;3186;54.062;9.962;2022-12-18T04:31:38;-4.80;99.90
6307;DHT22;3186;54.062;9.962;2022-12-18T04:34:04;-4.90;99.90
6307;DHT22;3186;54.062;9.962;2022-12-18T04:36:36;-4.90;99.90
6307;DHT22;3186;54.062;9.962;2022-12-18T04:39:03;-4.90;99.90
6307;DHT22;3186;54.062;9.962;2022-12-18T04:41:30;-4.80;99.90
6307;DHT22;3186;54.062;9.962;2022-12-18T04:43:55;-4.80;99.90
6307;DHT22;3186;54.062;9.962;2022-12-18T04:46:21;-4.80;99.90
6307;DHT22;3186;54.062;9.962;2022-12-18T04:48:47;-4.80;99.90
6307;DHT22;3186;54.062;9.962;2022-12-18T04:51:13;-4.90;99.90
6307;DHT22;3186;54.062;9.962;2022-12-18T04:53:39;-4.90;99.90
6307;DHT22;3186;54.062;9.962;2022-12-18T04:56:13;-4.80;99.90
6307;DHT22;3186;54.062;9.962;2022-12-18T04:58:40;-4.80;99.90
6307;DHT22;3186;54.062;9.962;2022-12-18T05:01:07;-4.80;99.90
6307;DHT22;3186;54.062;9.962;2022-12-18T05:03:33;-4.90;99.90
6307;DHT22;3186;54.062;9.962;2022-12-18T05:06:00;-4.90;99.90
6307;DHT22;3186;54.062;9.962;2022-12-18T05:08:26;-4.80;99.90
6307;DHT22;3186;54.062;9.962;2022-12-18T05:11:05;-4.90;99.90
6307;DHT22;3186;54.062;9.962;2022-12-18T05:13:32;-4.90;99.90
6307;DHT22;3186;54.062;9.962;2022-12-18T05:15:58;-4.90;99.90
6307;DHT22;3186;54.062;9.962;2022-12-18T05:18:25;-4.90;99.90
6307;DHT22;3186;54.062;9.962;2022-12-18T05:20:52;-4.80;99.90
6307;DHT22;3186;54.062;9.962;2022-12-18T05:23:19;-4.80;99.90
6307;DHT22;3186;54.062;9.962;2022-12-18T05:25:55;-4.90;99.90
6307;DHT22;3186;54.062;9.962;2022-12-18T05:28:23;-4.80;99.90
6307;DHT22;3186;54.062;9.962;2022-12-18T05:30:54;-4.90;99.90
6307;DHT22;3186;54.062;9.962;2022-12-18T05:33:21;-4.90;99.90
6307;DHT22;3186;54.062;9.962;2022-12-18T05:35:55;-4.90;99.90
6307;DHT22;3186;54.062;9.962;2022-12-18T05:38:22;-5.00;99.90
6307;DHT22;3186;54.062;9.962;2022-12-18T05:40:50;-5.00;99.90
6307;DHT22;3186;54.062;9.962;2022-12-18T05:43:16;-5.00;99.90
6307;DHT22;3186;54.062;9.962;2022-12-18T05:45:42;-5.00;99.90
6307;DHT22;3186;54.062;9.962;2022-12-18T05:48:09;-5.00;99.90
6307;DHT22;3186;54.062;9.962;2022-12-18T05:50:39;-5.10;99.90
6307;DHT22;3186;54.062;9.962;2022-12-18T05:53:06;-5.10;99.90
6307;DHT22;3186;54.062;9.962;2022-12-18T05:55:36;-5.20;99.90
6307;DHT22;3186;54.062;9.962;2022-12-18T05:58:04;-5.20;99.90
6307;DHT22;3186;54.062;9.962;2022-12-18T06:00:31;-5.20;99.90
6307;DHT22;3186;54.062;9.962;2022-12-18T06:02:58;-5.10;99.90
6307;DHT22;3186;54.062;9.962;2022-12-18T06:05:24;-5.10;99.90
6307;DHT22;3186;54.062;9.962;2022-12-18T06:07:51;-5.10;99.90
6307;DHT22;3186;54.062;9.962;2022-12-18T06:10:16;-5.10;99.90
6307;DHT22;3186;54.062;9.962;2022-12-18T06:12:42;-5.30;99.90
6307;DHT22;3186;54.062;9.962;2022-12-18T06:15:08;-5.20;99.90
6307;DHT22;3186;54.062;9.962;2022-12-18T06:17:36;-5.10;99.90
6307;DHT22;3186;54.062;9.962;2022-12-18T06:20:02;-5.10;99.90
6307;DHT22;3186;54.062;9.962;2022-12-18T06:22:30;-5.30;99.90
6307;DHT22;3186;54.062;9.962;2022-12-18T06:24:55;-5.20;99.90
6307;DHT22;3186;54.062;9.962;2022-12-18T06:27:22;-5.20;99.90
6307;DHT22;3186;54.062;9.962;2022-12-18T06:29:47;-5.10;99.90
6307;DHT22;3186;54.062;9.962;2022-12-18T06:32:13;-5.10;99.90
6307;DHT22;3186;54.062;9.962;2022-12-18T06:34:39;-5.00;99.90
6307;DHT22;3186;54.062;9.962;2022-12-18T06:37:05;-5.00;99.90
6307;DHT22;3186;54.062;9.962;2022-12-18T06:39:30;-5.00;99.90
6307;DHT22;3186;54.062;9.962;2022-12-18T06:41:56;-5.00;99.90
6307;DHT22;3186;54.062;9.962;2022-12-18T06:44:22;-5.00;99.90
6307;DHT22;3186;54.062;9.962;2022-12-18T06:46:48;-4.90;99.90
6307;DHT22;3186;54.062;9.962;2022-12-18T06:49:14;-4.90;99.90
6307;DHT22;3186;54.062;9.962;2022-12-18T06:51:41;-4.90;99.90
6307;DHT22;3186;54.062;9.962;2022-12-18T06:54:07;-5.00;99.90
6307;DHT22;3186;54.062;9.962;2022-12-18T06:56:34;-5.00;99.90
6307;DHT22;3186;54.062;9.962;2022-12-18T06:58:59;-5.00;99.90
6307;DHT22;3186;54.062;9.962;2022-12-18T07:01:26;-5.00;99.90
6307;DHT22;3186;54.062;9.962;2022-12-18T07:03:56;-5.00;99.90
6307;DHT22;3186;54.062;9.962;2022-12-18T07:06:24;-5.00;99.90
6307;DHT22;3186;54.062;9.962;2022-12-18T07:08:50;-4.90;99.90
6307;DHT22;3186;54.062;9.962;2022-12-18T07:11:17;-4.90;99.90
6307;DHT22;3186;54.062;9.962;2022-12-18T07:13:44;-4.90;99.90
6307;DHT22;3186;54.062;9.962;2022-12-18T07:16:18;-5.00;99.90
6307;DHT22;3186;54.062;9.962;2022-12-18T07:18:44;-5.00;99.90
6307;DHT22;3186;54.062;9.962;2022-12-18T07:21:15;-5.00;99.90
6307;DHT22;3186;54.062;9.962;2022-12-18T07:23:41;-5.00;99.90
6307;DHT22;3186;54.062;9.962;2022-12-18T07:26:12;-5.00;99.90
6307;DHT22;3186;54.062;9.962;2022-12-18T07:28:39;-5.00;99.90
6307;DHT22;3186;54.062;9.962;2022-12-18T07:31:14;-5.00;99.90
6307;DHT22;3186;54.062;9.962;2022-12-18T07:33:41;-5.00;99.90
6307;DHT22;3186;54.062;9.962;2022-12-18T07:36:08;-5.00;99.90
6307;DHT22;3186;54.062;9.962;2022-12-18T07:38:35;-5.00;99.90
6307;DHT22;3186;54.062;9.962;2022-12-18T07:41:10;-5.00;99.90
6307;DHT22;3186;54.062;9.962;2022-12-18T07:43:37;-5.00;99.90
6307;DHT22;3186;54.062;9.962;2022-12-18T07:46:04;-5.00;99.90
6307;DHT22;3186;54.062;9.962;2022-12-18T07:48:30;-5.00;99.90
6307;DHT22;3186;54.062;9.962;2022-12-18T07:51:05;-5.00;99.90
6307;DHT22;3186;54.062;9.962;2022-12-18T07:53:32;-5.00;99.90
6307;DHT22;3186;54.062;9.962;2022-12-18T07:55:59;-5.00;99.90
6307;DHT22;3186;54.062;9.962;2022-12-18T07:58:26;-5.00;99.90
6307;DHT22;3186;54.062;9.962;2022-12-18T08:00:52;-5.00;99.90
6307;DHT22;3186;54.062;9.962;2022-12-18T08:03:18;-5.00;99.90
6307;DHT22;3186;54.062;9.962;2022-12-18T08:05:44;-5.00;99.90
6307;DHT22;3186;54.062;9.962;2022-12-18T08:08:10;-5.00;99.90
6307;DHT22;3186;54.062;9.962;2022-12-18T08:10:37;-5.00;99.90
6307;DHT22;3186;54.062;9.962;2022-12-18T08:13:04;-5.00;99.90
6307;DHT22;3186;54.062;9.962;2022-12-18T08:15:30;-5.10;99.90
6307;DHT22;3186;54.062;9.962;2022-12-18T08:17:58;-5.10;99.90
6307;DHT22;3186;54.062;9.962;2022-12-18T08:20:24;-5.10;99.90
6307;DHT22;3186;54.062;9.962;2022-12-18T08:22:50;-5.10;99.90
6307;DHT22;3186;54.062;9.962;2022-12-18T08:25:16;-5.10;99.90
6307;DHT22;3186;54.062;9.962;2022-12-18T08:27:42;-5.10;99.90
6307;DHT22;3186;54.062;9.962;2022-12-18T08:30:08;-5.10;99.90
6307;DHT22;3186;54.062;9.962;2022-12-18T08:32:34;-5.10;99.90
6307;DHT22;3186;54.062;9.962;2022-12-18T08:35:00;-5.10;99.90
6307;DHT22;3186;54.062;9.962;2022-12-18T08:37:26;-5.10;99.90
6307;DHT22;3186;54.062;9.962;2022-12-18T08:39:52;-5.10;99.90
6307;DHT22;3186;54.062;9.962;2022-12-18T08:42:17;-5.10;99.90
6307;DHT22;3186;54.062;9.962;2022-12-18T08:45:03;-5.10;99.90
6307;DHT22;3186;54.062;9.962;2022-12-18T08:47:29;-5.10;99.90
6307;DHT22;3186;54.062;9.962;2022-12-18T08:49:55;-5.10;99.90
6307;DHT22;3186;54.062;9.962;2022-12-18T08:52:21;-5.10;99.90
6307;DHT22;3186;54.062;9.962;2022-12-18T08:54:46;-5.10;99.90
6307;DHT22;3186;54.062;9.962;2022-12-18T08:57:12;-5.10;99.90
6307;DHT22;3186;54.062;9.962;2022-12-18T08:59:38;-5.10;99.90
6307;DHT22;3186;54.062;9.962;2022-12-18T09:02:04;-5.10;99.90
6307;DHT22;3186;54.062;9.962;2022-12-18T09:04:29;-5.20;99.90
6307;DHT22;3186;54.062;9.962;2022-12-18T09:06:55;-5.20;99.90
6307;DHT22;3186;54.062;9.962;2022-12-18T09:09:21;-5.20;99.90
6307;DHT22;3186;54.062;9.962;2022-12-18T09:11:47;-5.20;99.90
6307;DHT22;3186;54.062;9.962;2022-12-18T09:14:13;-4.40;99.90
6307;DHT22;3186;54.062;9.962;2022-12-18T09:16:39;-5.20;99.90
6307;DHT22;3186;54.062;9.962;2022-12-18T09:19:05;-5.20;99.90
6307;DHT22;3186;54.062;9.962;2022-12-18T09:21:33;-5.20;99.90
6307;DHT22;3186;54.062;9.962;2022-12-18T09:23:59;-5.20;99.90
6307;DHT22;3186;54.062;9.962;2022-12-18T09:26:26;-5.20;99.90
6307;DHT22;3186;54.062;9.962;2022-12-18T09:28:52;-5.20;99.90
6307;DHT22;3186;54.062;9.962;2022-12-18T09:31:20;-5.20;99.90
6307;DHT22;3186;54.062;9.962;2022-12-18T09:33:46;-5.10;99.90
6307;DHT22;3186;54.062;9.962;2022-12-18T09:36:14;-5.10;99.90
6307;DHT22;3186;54.062;9.962;2022-12-18T09:38:40;-5.20;99.90
6307;DHT22;3186;54.062;9.962;2022-12-18T09:41:32;-5.30;99.90
6307;DHT22;3186;54.062;9.962;2022-12-18T09:44:27;-5.20;99.90
6307;DHT22;3186;54.062;9.962;2022-12-18T09:47:15;-5.10;99.90
6307;DHT22;3186;54.062;9.962;2022-12-18T09:49:46;-5.10;99.90
6307;DHT22;3186;54.062;9.962;2022-12-18T09:57:40;-5.10;99.90
6307;DHT22;3186;54.062;9.962;2022-12-18T10:00:23;-5.20;99.90
6307;DHT22;3186;54.062;9.962;2022-12-18T10:02:52;-5.10;99.90
6307;DHT22;3186;54.062;9.962;2022-12-18T10:05:37;-5.10;99.90
6307;DHT22;3186;54.062;9.962;2022-12-18T10:08:27;-5.10;99.90
6307;DHT22;3186;54.062;9.962;2022-12-18T10:19:51;-5.10;99.90
6307;DHT22;3186;54.062;9.962;2022-12-18T10:25:23;-5.10;99.90
6307;DHT22;3186;54.062;9.962;2022-12-18T10:27:54;-5.00;99.90
6307;DHT22;3186;54.062;9.962;2022-12-18T10:30:23;-5.00;99.90
6307;DHT22;3186;54.062;9.962;2022-12-18T10:32:50;-5.00;99.90
6307;DHT22;3186;54.062;9.962;2022-12-18T10:35:23;-5.00;99.90
6307;DHT22;3186;54.062;9.962;2022-12-18T10:40:30;-4.90;99.90
6307;DHT22;3186;54.062;9.962;2022-12-18T10:43:11;-4.90;99.90
6307;DHT22;3186;54.062;9.962;2022-12-18T10:45:38;-4.90;99.90
6307;DHT22;3186;54.062;9.962;2022-12-18T10:48:04;-4.90;99.90
6307;DHT22;3186;54.062;9.962;2022-12-18T10:50:36;-4.80;99.90
6307;DHT22;3186;54.062;9.962;2022-12-18T10:53:04;-4.80;99.90
6307;DHT22;3186;54.062;9.962;2022-12-18T10:55:38;-4.80;99.90
6307;DHT22;3186;54.062;9.962;2022-12-18T10:58:21;-4.80;99.90
6307;DHT22;3186;54.062;9.962;2022-12-18T11:01:07;-4.70;99.90
6307;DHT22;3186;54.062;9.962;2022-12-18T11:06:18;-4.60;99.90
6307;DHT22;3186;54.062;9.962;2022-12-18T11:11:24;-4.60;99.90
6307;DHT22;3186;54.062;9.962;2022-12-18T11:14:14;-4.50;99.90
6307;DHT22;3186;54.062;9.962;2022-12-18T11:16:47;-4.50;99.90
6307;DHT22;3186;54.062;9.962;2022-12-18T11:19:37;-4.50;99.90
6307;DHT22;3186;54.062;9.962;2022-12-18T11:22:25;-4.50;99.90
6307;DHT22;3186;54.062;9.962;2022-12-18T11:27:38;-4.40;99.90
6307;DHT22;3186;54.062;9.962;2022-12-18T11:30:09;-4.40;99.90
6307;DHT22;3186;54.062;9.962;2022-12-18T11:32:42;-4.40;99.90
6307;DHT22;3186;54.062;9.962;2022-12-18T11:35:40;-4.40;99.90
6307;DHT22;3186;54.062;9.962;2022-12-18T11:38:54;-4.30;99.90
6307;DHT22;3186;54.062;9.962;2022-12-18T11:41:19;-4.30;99.90
6307;DHT22;3186;54.062;9.962;2022-12-18T11:43:59;-4.20;99.90
6307;DHT22;3186;54.062;9.962;2022-12-18T11:46:37;-4.20;99.90
6307;DHT22;3186;54.062;9.962;2022-12-18T11:49:18;-4.10;99.90
6307;DHT22;3186;54.062;9.962;2022-12-18T11:54:17;-4.00;99.90
6307;DHT22;3186;54.062;9.962;2022-12-18T12:03:07;-3.90;99.90
6307;DHT22;3186;54.062;9.962;2022-12-18T12:27:19;-3.80;99.90
6307;DHT22;3186;54.062;9.962;2022-12-18T12:32:59;-3.70;99.90
6307;DHT22;3186;54.062;9.962;2022-12-18T12:38:37;-3.70;99.90
6307;DHT22;3186;54.062;9.962;2022-12-18T12:41:09;-3.70;99.90
6307;DHT22;3186;54.062;9.962;2022-12-18T12:43:59;-3.60;99.90
6307;DHT22;3186;54.062;9.962;2022-12-18T12:46:27;-3.60;99.90
6307;DHT22;3186;54.062;9.962;2022-12-18T12:49:03;-3.60;99.90
6307;DHT22;3186;54.062;9.962;2022-12-18T12:51:37;-3.70;99.90
6307;DHT22;3186;54.062;9.962;2022-12-18T12:54:08;-3.60;99.90
6307;DHT22;3186;54.062;9.962;2022-12-18T12:56:48;-3.60;99.90
6307;DHT22;3186;54.062;9.962;2022-12-18T12:59:24;-3.50;99.90
6307;DHT22;3186;54.062;9.962;2022-12-18T13:07:54;-3.50;99.90
6307;DHT22;3186;54.062;9.962;2022-12-18T13:10:30;-3.50;99.90
6307;DHT22;3186;54.062;9.962;2022-12-18T13:20:39;-3.50;99.90
6307;DHT22;3186;54.062;9.962;2022-12-18T13:23:38;-3.40;99.90
6307;DHT22;3186;54.062;9.962;2022-12-18T13:31:14;-3.40;99.90
6307;DHT22;3186;54.062;9.962;2022-12-18T13:33:45;-3.40;99.90
6307;DHT22;3186;54.062;9.962;2022-12-18T13:36:30;-3.40;99.90
6307;DHT22;3186;54.062;9.962;2022-12-18T13:39:20;-3.40;99.90
6307;DHT22;3186;54.062;9.962;2022-12-18T13:41:49;-3.40;99.90
6307;DHT22;3186;54.062;9.962;2022-12-18T13:46:51;-3.40;99.90
6307;DHT22;3186;54.062;9.962;2022-12-18T13:52:01;-3.40;99.90
6307;DHT22;3186;54.062;9.962;2022-12-18T13:54:36;-3.40;99.90
6307;DHT22;3186;54.062;9.962;2022-12-18T13:57:04;-3.40;99.90
6307;DHT22;3186;54.062;9.962;2022-12-18T13:59:38;-3.40;99.90
6307;DHT22;3186;54.062;9.962;2022-12-18T14:02:19;-3.40;99.90
6307;DHT22;3186;54.062;9.962;2022-12-18T14:04:47;-3.40;99.90
6307;DHT22;3186;54.062;9.962;2022-12-18T14:07:16;-3.30;99.90
6307;DHT22;3186;54.062;9.962;2022-12-18T14:09:49;-3.30;99.90
6307;DHT22;3186;54.062;9.962;2022-12-18T14:12:20;-3.30;99.90
6307;DHT22;3186;54.062;9.962;2022-12-18T14:20:34;-3.30;99.90
6307;DHT22;3186;54.062;9.962;2022-12-18T14:23:01;-3.30;99.90
6307;DHT22;3186;54.062;9.962;2022-12-18T14:25:28;-3.30;99.90
6307;DHT22;3186;54.062;9.962;2022-12-18T14:30:39;-3.30;99.90
6307;DHT22;3186;54.062;9.962;2022-12-18T14:35:43;-3.30;99.90
6307;DHT22;3186;54.062;9.962;2022-12-18T14:40:36;-3.30;99.90
6307;DHT22;3186;54.062;9.962;2022-12-18T14:43:02;-3.30;99.90
6307;DHT22;3186;54.062;9.962;2022-12-18T14:45:40;-3.30;99.90
6307;DHT22;3186;54.062;9.962;2022-12-18T14:51:15;-3.30;99.90
6307;DHT22;3186;54.062;9.962;2022-12-18T14:53:55;-3.30;99.90
6307;DHT22;3186;54.062;9.962;2022-12-18T14:56:23;-3.30;99.90
6307;DHT22;3186;54.062;9.962;2022-12-18T14:59:36;-3.30;99.90
6307;DHT22;3186;54.062;9.962;2022-12-18T15:09:32;-3.30;99.90
6307;DHT22;3186;54.062;9.962;2022-12-18T15:12:00;-3.30;99.90
6307;DHT22;3186;54.062;9.962;2022-12-18T15:14:34;-3.30;99.90
6307;DHT22;3186;54.062;9.962;2022-12-18T15:17:02;-4.70;99.90
6307;DHT22;3186;54.062;9.962;2022-12-18T15:19:48;-3.30;99.90
6307;DHT22;3186;54.062;9.962;2022-12-18T15:22:30;-3.30;99.90
6307;DHT22;3186;54.062;9.962;2022-12-18T15:24:57;-3.30;99.90
6307;DHT22;3186;54.062;9.962;2022-12-18T15:32:37;-3.30;99.90
6307;DHT22;3186;54.062;9.962;2022-12-18T15:35:16;-3.40;99.90
6307;DHT22;3186;54.062;9.962;2022-12-18T15:37:43;-3.30;99.90
6307;DHT22;3186;54.062;9.962;2022-12-18T15:40:20;-3.30;99.90
6307;DHT22;3186;54.062;9.962;2022-12-18T15:42:47;-3.30;99.90
6307;DHT22;3186;54.062;9.962;2022-12-18T15:45:32;-3.30;99.90
6307;DHT22;3186;54.062;9.962;2022-12-18T15:47:58;-3.30;99.90
6307;DHT22;3186;54.062;9.962;2022-12-18T15:50:25;-3.30;99.90
6307;DHT22;3186;54.062;9.962;2022-12-18T15:52:53;-3.30;99.90
6307;DHT22;3186;54.062;9.962;2022-12-18T15:55:22;-3.30;99.90
6307;DHT22;3186;54.062;9.962;2022-12-18T15:58:08;-3.30;99.90
6307;DHT22;3186;54.062;9.962;2022-12-18T16:00:37;-3.40;99.90
6307;DHT22;3186;54.062;9.962;2022-12-18T16:03:04;-3.40;99.90
6307;DHT22;3186;54.062;9.962;2022-12-18T16:05:30;-3.40;99.90
6307;DHT22;3186;54.062;9.962;2022-12-18T16:07:56;-3.40;99.90
6307;DHT22;3186;54.062;9.962;2022-12-18T16:10:22;-3.40;99.90
6307;DHT22;3186;54.062;9.962;2022-12-18T16:12:49;-3.40;99.90
6307;DHT22;3186;54.062;9.962;2022-12-18T16:15:15;-3.40;99.90
6307;DHT22;3186;54.062;9.962;2022-12-18T16:17:46;-3.40;99.90
6307;DHT22;3186;54.062;9.962;2022-12-18T16:20:14;-3.40;99.90
6307;DHT22;3186;54.062;9.962;2022-12-18T16:22:41;-3.40;99.90
6307;DHT22;3186;54.062;9.962;2022-12-18T16:25:20;-3.30;99.90
6307;DHT22;3186;54.062;9.962;2022-12-18T16:27:46;-3.40;99.90
6307;DHT22;3186;54.062;9.962;2022-12-18T16:30:21;-3.40;99.90
6307;DHT22;3186;54.062;9.962;2022-12-18T16:32:47;-3.40;99.90
6307;DHT22;3186;54.062;9.962;2022-12-18T16:35:14;-3.40;99.90
6307;DHT22;3186;54.062;9.962;2022-12-18T16:37:40;-3.50;99.90
6307;DHT22;3186;54.062;9.962;2022-12-18T16:40:12;-3.40;99.90
6307;DHT22;3186;54.062;9.962;2022-12-18T16:42:40;-3.40;99.90
6307;DHT22;3186;54.062;9.962;2022-12-18T16:45:09;-3.40;99.90
6307;DHT22;3186;54.062;9.962;2022-12-18T16:47:35;-3.40;99.90
6307;DHT22;3186;54.062;9.962;2022-12-18T16:50:01;-3.40;99.90
6307;DHT22;3186;54.062;9.962;2022-12-18T16:52:27;-3.40;99.90
6307;DHT22;3186;54.062;9.962;2022-12-18T16:54:53;-3.40;99.90
6307;DHT22;3186;54.062;9.962;2022-12-18T16:57:20;-3.40;99.90
6307;DHT22;3186;54.062;9.962;2022-12-18T16:59:46;-3.40;99.90
6307;DHT22;3186;54.062;9.962;2022-12-18T17:02:17;-3.30;99.90
6307;DHT22;3186;54.062;9.962;2022-12-18T17:04:45;-3.30;99.90
6307;DHT22;3186;54.062;9.962;2022-12-18T17:07:12;-3.30;99.90
6307;DHT22;3186;54.062;9.962;2022-12-18T17:09:38;-3.40;99.90
6307;DHT22;3186;54.062;9.962;2022-12-18T17:12:05;-3.30;99.90
6307;DHT22;3186;54.062;9.962;2022-12-18T17:14:31;-3.40;99.90
6307;DHT22;3186;54.062;9.962;2022-12-18T17:16:57;-3.30;99.90
6307;DHT22;3186;54.062;9.962;2022-12-18T17:19:25;-3.40;99.90
6307;DHT22;3186;54.062;9.962;2022-12-18T17:21:51;-3.40;99.90
6307;DHT22;3186;54.062;9.962;2022-12-18T17:24:17;-3.40;99.90
6307;DHT22;3186;54.062;9.962;2022-12-18T17:26:45;-3.40;99.90
6307;DHT22;3186;54.062;9.962;2022-12-18T17:29:18;-3.40;99.90
6307;DHT22;3186;54.062;9.962;2022-12-18T17:31:45;-3.40;99.90
6307;DHT22;3186;54.062;9.962;2022-12-18T17:34:12;-3.40;99.90
6307;DHT22;3186;54.062;9.962;2022-12-18T17:36:38;-3.40;99.90
6307;DHT22;3186;54.062;9.962;2022-12-18T17:39:05;-3.40;99.90
6307;DHT22;3186;54.062;9.962;2022-12-18T17:41:31;-3.40;99.90
6307;DHT22;3186;54.062;9.962;2022-12-18T17:44:02;-3.30;99.90
6307;DHT22;3186;54.062;9.962;2022-12-18T17:46:30;-3.40;99.90
6307;DHT22;3186;54.062;9.962;2022-12-18T17:49:00;-3.30;99.90
6307;DHT22;3186;54.062;9.962;2022-12-18T17:51:27;-3.30;99.90
6307;DHT22;3186;54.062;9.962;2022-12-18T17:53:53;-3.30;99.90
6307;DHT22;3186;54.062;9.962;2022-12-18T17:56:21;-3.30;99.90
6307;DHT22;3186;54.062;9.962;2022-12-18T17:58:47;-3.30;99.90
6307;DHT22;3186;54.062;9.962;2022-12-18T18:01:20;-3.30;99.90
6307;DHT22;3186;54.062;9.962;2022-12-18T18:03:47;-3.30;99.90
6307;DHT22;3186;54.062;9.962;2022-12-18T18:06:13;-3.30;99.90
6307;DHT22;3186;54.062;9.962;2022-12-18T18:08:39;-3.30;99.90
6307;DHT22;3186;54.062;9.962;2022-12-18T18:11:11;-3.30;99.90
6307;DHT22;3186;54.062;9.962;2022-12-18T18:13:56;-3.40;99.90
6307;DHT22;3186;54.062;9.962;2022-12-18T18:16:39;-3.40;99.90
6307;DHT22;3186;54.062;9.962;2022-12-18T18:19:07;-3.40;99.90
6307;DHT22;3186;54.062;9.962;2022-12-18T18:21:38;-3.40;99.90
6307;DHT22;3186;54.062;9.962;2022-12-18T18:24:05;-3.30;99.90
6307;DHT22;3186;54.062;9.962;2022-12-18T18:26:32;-3.30;99.90
6307;DHT22;3186;54.062;9.962;2022-12-18T18:28:59;-3.30;99.90
6307;DHT22;3186;54.062;9.962;2022-12-18T18:31:27;-3.30;99.90
6307;DHT22;3186;54.062;9.962;2022-12-18T18:33:53;-3.30;99.90
6307;DHT22;3186;54.062;9.962;2022-12-18T18:36:20;-3.30;99.90
6307;DHT22;3186;54.062;9.962;2022-12-18T18:38:46;-3.30;99.90
6307;DHT22;3186;54.062;9.962;2022-12-18T18:41:12;-3.30;99.90
6307;DHT22;3186;54.062;9.962;2022-12-18T18:43:38;-3.30;99.90
6307;DHT22;3186;54.062;9.962;2022-12-18T18:46:04;-3.30;99.90